Check out our new BloomSky Weather System.

Active alerts


No alerts


Thunder radar  blitzortung!


Rain radar more information rain snow radar


Visit our other weather sites:

Template documentation
and downloads

And another site



Weather Underground History page Text

Daily Summary for June 7, 2017 Units:  English    Metric   Both
« Previous Day
Next Day »
Daily Weekly Monthly Yearly Custom
  High: Low: Average:
Temperature: 91.9 °F 70.5 °F 81.2 °F
Dew Point: 74.8 °F 67.3 °F 71.1 °F
Humidity: 98 % 46 % 74 %
Wind Speed: 10.0 mph 0.0 mph 1.6 mph
Wind Gust: 14.0 mph - -
Wind:- - WSW
Pressure: 29.90 in 29.81 in -
Precipitation: 0.01 in    
Historical Graphs
 
 
Tabular Data for June 7, 2017
Time Temperature Dew Point Pressure Wind Wind Speed Wind Gust Humidity Rainfall Rate (Hourly)
00:02 73.6 °F 72.3 °F 29.81 in Calm   1.0 mph 96 % 0.00 in
00:07 73.2 °F 72.0 °F 29.81 in Calm   1.0 mph 96 % 0.00 in
00:12 73.2 °F 72.0 °F 29.81 in Calm   1.0 mph 96 % 0.00 in
00:17 73.2 °F 72.0 °F 29.81 in Calm   1.0 mph 96 % 0.00 in
00:22 73.2 °F 72.0 °F 29.81 in Calm   1.0 mph 96 % 0.00 in
00:27 73.2 °F 72.0 °F 29.81 in Calm   1.0 mph 96 % 0.00 in
00:34 73.2 °F 72.0 °F 29.81 in Calm   1.0 mph 96 % 0.00 in
00:39 73.0 °F 71.8 °F 29.81 in Calm     96 % 0.00 in
00:44 73.0 °F 71.8 °F 29.81 in Calm   1.0 mph 96 % 0.00 in
00:49 73.0 °F 71.8 °F 29.81 in Calm   1.0 mph 96 % 0.00 in
00:54 73.0 °F 71.8 °F 29.81 in Calm   1.0 mph 96 % 0.00 in
00:59 73.0 °F 71.8 °F 29.81 in Calm   1.0 mph 96 % 0.00 in
01:04 73.0 °F 71.8 °F 29.81 in Calm   2.0 mph 96 % 0.00 in
01:09 73.0 °F 71.8 °F 29.81 in Calm   2.0 mph 96 % 0.00 in
01:14 72.9 °F 71.6 °F 29.81 in Calm   2.0 mph 96 % 0.00 in
01:19 72.9 °F 71.6 °F 29.81 in Calm   2.0 mph 96 % 0.00 in
01:24 72.9 °F 71.6 °F 29.81 in Calm   2.0 mph 96 % 0.00 in
01:29 72.9 °F 71.6 °F 29.81 in Calm   1.0 mph 96 % 0.00 in
01:34 72.9 °F 71.6 °F 29.81 in Calm   1.0 mph 96 % 0.00 in
01:39 72.9 °F 71.6 °F 29.81 in Calm   1.0 mph 96 % 0.00 in
01:44 72.7 °F 71.4 °F 29.81 in Calm   1.0 mph 96 % 0.00 in
01:54 72.7 °F 71.4 °F 29.81 in Calm   1.0 mph 96 % 0.00 in
01:59 72.3 °F 71.1 °F 29.81 in Calm   1.0 mph 96 % 0.00 in
02:04 72.3 °F 71.1 °F 29.81 in Calm   1.0 mph 96 % 0.00 in
02:09 72.3 °F 71.1 °F 29.81 in Calm   1.0 mph 96 % 0.00 in
02:14 72.3 °F 71.1 °F 29.81 in Calm   1.0 mph 96 % 0.01 in
02:19 72.1 °F 70.9 °F 29.81 in Calm   1.0 mph 96 % 0.01 in
02:24 72.0 °F 70.7 °F 29.81 in Calm   1.0 mph 96 % 0.01 in
02:29 71.8 °F 70.5 °F 29.81 in NNW 1.0 mph 1.0 mph 96 % 0.01 in
02:34 72.0 °F 71.1 °F 29.81 in NNW 1.0 mph 1.0 mph 97 % 0.01 in
02:39 72.1 °F 70.9 °F 29.81 in Calm   1.0 mph 96 % 0.01 in
02:44 72.0 °F 70.7 °F 29.81 in Calm   1.0 mph 96 % 0.01 in
02:49 72.0 °F 70.7 °F 29.81 in Calm   1.0 mph 96 % 0.01 in
02:54 72.0 °F 70.7 °F 29.81 in Calm   1.0 mph 96 % 0.01 in
02:59 71.8 °F 70.5 °F 29.81 in NNW 1.0 mph 1.0 mph 96 % 0.01 in
03:04 71.8 °F 70.5 °F 29.81 in Calm   1.0 mph 96 % 0.01 in
03:09 71.6 °F 70.3 °F 29.81 in Calm   1.0 mph 96 % 0.01 in
03:14 71.4 °F 70.5 °F 29.81 in Calm   1.0 mph 97 % 0.00 in
03:19 71.6 °F 70.7 °F 29.81 in Calm   1.0 mph 97 % 0.00 in
03:24 71.8 °F 70.9 °F 29.81 in NW 1.0 mph 1.0 mph 97 % 0.00 in
03:29 71.8 °F 70.9 °F 29.81 in Calm   1.0 mph 97 % 0.00 in
03:34 71.8 °F 70.9 °F 29.81 in Calm   1.0 mph 97 % 0.00 in
03:39 71.8 °F 70.9 °F 29.81 in Calm   2.0 mph 97 % 0.00 in
03:45 71.8 °F 70.9 °F 29.81 in Calm   2.0 mph 97 % 0.00 in
03:47 71.8 °F 70.9 °F 29.81 in Calm   2.0 mph 97 % 0.00 in
03:52 71.6 °F 70.7 °F 29.81 in Calm   1.0 mph 97 % 0.00 in
03:57 71.8 °F 70.9 °F 29.81 in Calm   1.0 mph 97 % 0.00 in
04:02 71.6 °F 70.7 °F 29.82 in Calm   1.0 mph 97 % 0.00 in
04:07 71.6 °F 70.7 °F 29.82 in Calm   1.0 mph 97 % 0.00 in
04:12 71.6 °F 70.7 °F 29.82 in Calm   2.0 mph 97 % 0.00 in
04:17 71.4 °F 70.5 °F 29.83 in Calm   2.0 mph 97 % 0.00 in
04:22 71.4 °F 70.5 °F 29.83 in Calm   2.0 mph 97 % 0.00 in
04:27 71.4 °F 70.5 °F 29.83 in NW 1.0 mph   97 % 0.00 in
04:32 71.2 °F 70.3 °F 29.83 in NW 1.0 mph 1.0 mph 97 % 0.00 in
04:37 71.4 °F 70.5 °F 29.83 in Calm   2.0 mph 97 % 0.00 in
04:42 71.4 °F 70.5 °F 29.83 in Calm   2.0 mph 97 % 0.00 in
04:47 71.4 °F 70.5 °F 29.83 in Calm   2.0 mph 97 % 0.00 in
04:52 71.2 °F 70.3 °F 29.83 in Calm     97 % 0.00 in
04:57 71.2 °F 70.3 °F 29.83 in Calm     97 % 0.00 in
05:02 71.2 °F 70.3 °F 29.83 in Calm     97 % 0.00 in
05:07 71.2 °F 70.3 °F 29.83 in Calm     97 % 0.00 in
05:12 71.1 °F 70.2 °F 29.83 in Calm     97 % 0.00 in
05:17 70.9 °F 70.0 °F 29.83 in Calm     97 % 0.00 in
05:22 70.9 °F 70.0 °F 29.83 in Calm     97 % 0.00 in
05:27 70.9 °F 70.0 °F 29.83 in Calm     97 % 0.00 in
05:32 70.9 °F 70.0 °F 29.83 in Calm   1.0 mph 97 % 0.00 in
05:37 70.9 °F 70.0 °F 29.83 in Calm   1.0 mph 97 % 0.00 in
05:42 70.9 °F 70.3 °F 29.83 in Calm   1.0 mph 98 % 0.00 in
05:47 70.9 °F 70.0 °F 29.83 in Calm     97 % 0.00 in
05:49 70.9 °F 70.0 °F 29.83 in Calm     97 % 0.00 in
05:54 70.9 °F 70.0 °F 29.83 in Calm     97 % 0.00 in
05:59 70.7 °F 69.8 °F 29.83 in Calm     97 % 0.00 in
06:04 70.5 °F 69.6 °F 29.83 in Calm     97 % 0.00 in
06:09 70.5 °F 70.0 °F 29.83 in Calm     98 % 0.00 in
06:14 70.5 °F 70.0 °F 29.83 in Calm   1.0 mph 98 % 0.00 in
06:19 70.7 °F 70.2 °F 29.84 in Calm   1.0 mph 98 % 0.00 in
06:24 70.7 °F 70.2 °F 29.84 in NNW 1.0 mph 1.0 mph 98 % 0.00 in
06:29 70.9 °F 70.3 °F 29.84 in Calm   2.0 mph 98 % 0.00 in
06:34 70.9 °F 70.3 °F 29.84 in Calm   2.0 mph 98 % 0.00 in
06:39 70.7 °F 70.2 °F 29.84 in Calm   2.0 mph 98 % 0.00 in
06:44 70.7 °F 70.2 °F 29.84 in Calm   2.0 mph 98 % 0.00 in
06:49 70.9 °F 70.3 °F 29.84 in Calm   1.0 mph 98 % 0.00 in
06:54 71.1 °F 70.5 °F 29.84 in Calm   1.0 mph 98 % 0.00 in
06:59 71.1 °F 70.5 °F 29.84 in NNW 1.0 mph 1.0 mph 98 % 0.00 in
07:04 71.6 °F 71.1 °F 29.85 in NW 1.0 mph 1.0 mph 98 % 0.00 in
07:09 72.0 °F 71.4 °F 29.85 in Calm   2.0 mph 98 % 0.00 in
07:15 72.3 °F 71.8 °F 29.85 in NW 2.0 mph 2.0 mph 98 % 0.00 in
07:20 72.7 °F 71.8 °F 29.85 in NNW 1.0 mph 2.0 mph 97 % 0.00 in
07:25 72.9 °F 72.0 °F 29.85 in NNW 2.0 mph 3.0 mph 97 % 0.00 in
07:30 73.0 °F 72.1 °F 29.85 in NW 4.0 mph 4.0 mph 97 % 0.00 in
07:35 73.2 °F 72.0 °F 29.85 in NNW 4.0 mph 4.0 mph 96 % 0.00 in
07:40 73.6 °F 72.3 °F 29.86 in North 2.0 mph 4.0 mph 96 % 0.00 in
07:45 73.8 °F 72.3 °F 29.86 in WNW 1.0 mph 4.0 mph 95 % 0.00 in
07:50 74.3 °F 72.9 °F 29.86 in Calm   4.0 mph 95 % 0.00 in
07:55 74.8 °F 73.2 °F 29.86 in NNW 1.0 mph 4.0 mph 95 % 0.00 in
08:00 75.4 °F 73.2 °F 29.86 in NW 2.0 mph 4.0 mph 93 % 0.00 in
08:05 75.7 °F 73.6 °F 29.86 in NNW 2.0 mph 4.0 mph 93 % 0.00 in
08:10 76.5 °F 73.9 °F 29.86 in Calm   4.0 mph 92 % 0.00 in
08:15 77.2 °F 74.3 °F 29.87 in WNW 3.0 mph 4.0 mph 91 % 0.00 in
08:20 77.5 °F 74.1 °F 29.87 in NW 3.0 mph 7.0 mph 89 % 0.00 in
08:25 78.3 °F 74.5 °F 29.87 in Calm   7.0 mph 88 % 0.00 in
08:30 78.8 °F 74.7 °F 29.88 in WNW 2.0 mph 7.0 mph 87 % 0.00 in
08:35 79.2 °F 74.3 °F 29.88 in NW 1.0 mph 7.0 mph 85 % 0.00 in
08:40 79.5 °F 74.7 °F 29.88 in NW 2.0 mph 7.0 mph 85 % 0.00 in
08:45 79.9 °F 74.7 °F 29.88 in West 2.0 mph 5.0 mph 84 % 0.00 in
08:50 80.2 °F 74.7 °F 29.88 in NNE 4.0 mph 6.0 mph 83 % 0.00 in
08:55 80.4 °F 74.5 °F 29.88 in NW 2.0 mph 9.0 mph 82 % 0.00 in
09:00 80.4 °F 74.1 °F 29.89 in ENE 1.0 mph 9.0 mph 81 % 0.00 in
09:05 80.6 °F 73.9 °F 29.88 in ENE 2.0 mph 9.0 mph 80 % 0.00 in
09:11 81.0 °F 74.1 °F 29.88 in ENE 2.0 mph 7.0 mph 80 % 0.00 in
09:16 81.1 °F 74.3 °F 29.88 in WNW 1.0 mph 7.0 mph 80 % 0.00 in
09:21 81.3 °F 74.5 °F 29.89 in NW 4.0 mph 6.0 mph 80 % 0.00 in
09:26 81.5 °F 74.7 °F 29.89 in NNW 3.0 mph 9.0 mph 80 % 0.00 in
09:31 81.9 °F 74.7 °F 29.89 in NNW 1.0 mph 9.0 mph 79 % 0.00 in
09:36 82.0 °F 74.5 °F 29.88 in North 1.0 mph 9.0 mph 78 % 0.00 in
09:41 82.4 °F 74.8 °F 29.88 in WNW 5.0 mph 8.0 mph 78 % 0.00 in
09:46 82.6 °F 74.7 °F 29.88 in NW 3.0 mph 8.0 mph 77 % 0.00 in
09:51 82.6 °F 73.8 °F 29.89 in NNW 1.0 mph 7.0 mph 75 % 0.00 in
09:56 82.8 °F 73.6 °F 29.89 in NE 4.0 mph 7.0 mph 74 % 0.00 in
10:01 82.9 °F 73.8 °F 29.89 in NW 2.0 mph 7.0 mph 74 % 0.00 in
10:06 83.5 °F 73.9 °F 29.89 in NW 2.0 mph 7.0 mph 73 % 0.00 in
10:11 83.7 °F 74.1 °F 29.89 in NNW 2.0 mph 7.0 mph 73 % 0.00 in
10:16 84.0 °F 73.9 °F 29.89 in North 2.0 mph 7.0 mph 72 % 0.00 in
10:21 84.0 °F 73.9 °F 29.89 in ENE 1.0 mph 9.0 mph 72 % 0.00 in
10:26 84.0 °F 73.9 °F 29.89 in NNW 4.0 mph 9.0 mph 72 % 0.00 in
10:31 84.0 °F 73.9 °F 29.89 in NNW 5.0 mph 9.0 mph 72 % 0.00 in
10:36 84.2 °F 73.4 °F 29.89 in NE 3.0 mph 9.0 mph 70 % 0.00 in
10:41 84.4 °F 73.6 °F 29.89 in East 4.0 mph 8.0 mph 70 % 0.00 in
10:46 84.4 °F 73.9 °F 29.89 in East 4.0 mph 8.0 mph 71 % 0.00 in
10:51 84.4 °F 74.8 °F 29.89 in NW 2.0 mph 8.0 mph 73 % 0.00 in
10:56 85.1 °F 74.1 °F 29.89 in NE 4.0 mph 8.0 mph 70 % 0.00 in
11:01 85.1 °F 74.1 °F 29.89 in NW 1.0 mph 6.0 mph 70 % 0.00 in
11:06 84.9 °F 74.1 °F 29.89 in SE 2.0 mph 6.0 mph 70 % 0.00 in
11:11 85.3 °F 74.8 °F 29.89 in NNW 3.0 mph 6.0 mph 71 % 0.00 in
11:16 85.6 °F 74.7 °F 29.89 in East 1.0 mph 6.0 mph 70 % 0.00 in
11:21 86.2 °F 74.8 °F 29.89 in ESE 1.0 mph 6.0 mph 69 % 0.00 in
11:26 86.2 °F 74.8 °F 29.89 in NW 1.0 mph 6.0 mph 69 % 0.00 in
11:31 86.2 °F 73.9 °F 29.89 in NNW 4.0 mph 5.0 mph 67 % 0.00 in
11:36 86.4 °F 74.1 °F 29.89 in North 5.0 mph 7.0 mph 67 % 0.00 in
11:41 86.4 °F 73.2 °F 29.89 in NNE 1.0 mph 8.0 mph 65 % 0.00 in
11:46 86.5 °F 73.4 °F 29.89 in ENE 4.0 mph 8.0 mph 65 % 0.00 in
11:51 86.7 °F 73.9 °F 29.89 in NW 3.0 mph 9.0 mph 66 % 0.00 in
11:56 87.3 °F 74.5 °F 29.89 in East 4.0 mph 9.0 mph 66 % 0.00 in
12:01 87.4 °F 74.3 °F 29.89 in NW 3.0 mph 9.0 mph 65 % 0.00 in
12:06 87.6 °F 74.3 °F 29.89 in North 5.0 mph 7.0 mph 65 % 0.00 in
12:11 87.8 °F 73.6 °F 29.89 in North 4.0 mph 9.0 mph 63 % 0.00 in
12:16 88.0 °F 72.9 °F 29.89 in NNW 3.0 mph 9.0 mph 61 % 0.00 in
12:21 88.2 °F 72.5 °F 29.89 in SW 1.0 mph 9.0 mph 60 % 0.00 in
12:26 88.3 °F 73.2 °F 29.89 in West 6.0 mph 8.0 mph 61 % 0.00 in
12:31 88.3 °F 74.1 °F 29.89 in NE 2.0 mph 8.0 mph 63 % 0.00 in
12:36 88.5 °F 71.8 °F 29.89 in NW 1.0 mph 8.0 mph 58 % 0.00 in
12:41 88.3 °F 72.1 °F 29.89 in West 3.0 mph 8.0 mph 59 % 0.00 in
12:46 88.5 °F 73.4 °F 29.89 in NNW 4.0 mph 11.0 mph 61 % 0.00 in
12:51 88.9 °F 71.6 °F 29.89 in East 3.0 mph 11.0 mph 57 % 0.00 in
12:56 89.1 °F 72.3 °F 29.89 in ENE 4.0 mph 11.0 mph 58 % 0.00 in
13:01 89.1 °F 71.8 °F 29.89 in NW 7.0 mph 10.0 mph 57 % 0.00 in
13:06 89.1 °F 70.2 °F 29.89 in NE 2.0 mph 9.0 mph 54 % 0.00 in
13:11 88.7 °F 71.1 °F 29.89 in NNW 2.0 mph 12.0 mph 56 % 0.00 in
13:16 88.9 °F 72.1 °F 29.89 in NW 2.0 mph 13.0 mph 58 % 0.00 in
13:21 89.2 °F 69.8 °F 29.88 in WNW 3.0 mph 13.0 mph 53 % 0.00 in
13:26 89.6 °F 70.7 °F 29.88 in North 3.0 mph 13.0 mph 54 % 0.00 in
13:31 89.6 °F 70.2 °F 29.88 in NNE 3.0 mph 11.0 mph 53 % 0.00 in
13:36 89.8 °F 70.3 °F 29.88 in NW 4.0 mph 11.0 mph 53 % 0.00 in
13:41 90.1 °F 70.2 °F 29.88 in NE 4.0 mph 8.0 mph 52 % 0.00 in
13:46 90.3 °F 69.1 °F 29.89 in ENE 2.0 mph 11.0 mph 50 % 0.00 in
13:52 90.9 °F 68.5 °F 29.88 in North 9.0 mph 11.0 mph 48 % 0.00 in
13:57 90.9 °F 69.6 °F 29.88 in North 5.0 mph 11.0 mph 50 % 0.00 in
14:02 91.0 °F 69.3 °F 29.88 in NW 4.0 mph 10.0 mph 49 % 0.00 in
14:07 90.5 °F 69.3 °F 29.88 in NW 5.0 mph 10.0 mph 50 % 0.00 in
14:12 90.0 °F 68.2 °F 29.88 in Calm   12.0 mph 49 % 0.00 in
14:17 90.0 °F 68.9 °F 29.88 in NW 5.0 mph 12.0 mph 50 % 0.00 in
14:22 90.5 °F 68.7 °F 29.88 in WNW 5.0 mph 12.0 mph 49 % 0.00 in
14:27 90.5 °F 69.3 °F 29.88 in North 2.0 mph 14.0 mph 50 % 0.00 in
14:32 90.9 °F 69.1 °F 29.88 in NNW 8.0 mph 14.0 mph 49 % 0.00 in
14:37 91.0 °F 68.5 °F 29.88 in NE 3.0 mph 14.0 mph 48 % 0.00 in
14:42 90.1 °F 68.4 °F 29.88 in WNW 3.0 mph 10.0 mph 49 % 0.00 in
14:47 90.3 °F 69.8 °F 29.88 in WNW 4.0 mph 10.0 mph 51 % 0.00 in
14:52 90.5 °F 68.7 °F 29.88 in NNW 4.0 mph 13.0 mph 49 % 0.00 in
14:57 90.9 °F 67.3 °F 29.88 in NNE 7.0 mph 13.0 mph 46 % 0.00 in
15:02 91.2 °F 68.7 °F 29.88 in North 10.0 mph 13.0 mph 48 % 0.00 in
15:07 91.2 °F 68.2 °F 29.88 in ENE 3.0 mph 14.0 mph 47 % 0.00 in
15:12 91.0 °F 68.0 °F 29.87 in WNW 3.0 mph 14.0 mph 47 % 0.00 in
15:17 91.2 °F 68.2 °F 29.87 in NW 3.0 mph 14.0 mph 47 % 0.00 in
15:22 91.0 °F 68.0 °F 29.87 in NW 4.0 mph 8.0 mph 47 % 0.00 in
15:27 90.9 °F 69.1 °F 29.87 in NNW 6.0 mph 13.0 mph 49 % 0.00 in
15:32 90.7 °F 68.4 °F 29.87 in NNW 5.0 mph 13.0 mph 48 % 0.00 in
15:37 90.5 °F 68.2 °F 29.87 in NNW 4.0 mph 13.0 mph 48 % 0.00 in
15:42 90.1 °F 67.8 °F 29.87 in NNW 5.0 mph 12.0 mph 48 % 0.00 in
15:47 90.0 °F 68.2 °F 29.87 in NNE 4.0 mph 12.0 mph 49 % 0.00 in
15:48 90.0 °F 70.0 °F 29.87 in NNW 4.0 mph 12.0 mph 52 % 0.00 in
15:53 90.5 °F 70.0 °F 29.86 in NW 4.0 mph 8.0 mph 51 % 0.00 in
15:58 90.9 °F 69.1 °F 29.86 in WNW 3.0 mph 8.0 mph 49 % 0.00 in
16:03 91.2 °F 69.4 °F 29.86 in West 4.0 mph 8.0 mph 49 % 0.00 in
16:08 91.6 °F 68.5 °F 29.86 in WNW 3.0 mph 8.0 mph 47 % 0.00 in
16:13 91.8 °F 69.8 °F 29.86 in NW 2.0 mph 8.0 mph 49 % 0.00 in
16:18 91.9 °F 68.9 °F 29.86 in NNW 2.0 mph 8.0 mph 47 % 0.00 in
16:23 91.9 °F 68.9 °F 29.86 in NNE 4.0 mph 8.0 mph 47 % 0.00 in
16:29 91.6 °F 67.8 °F 29.86 in NW 2.0 mph 8.0 mph 46 % 0.00 in
16:34 91.2 °F 68.7 °F 29.86 in ENE 3.0 mph 8.0 mph 48 % 0.00 in
16:39 90.9 °F 68.5 °F 29.85 in WNW 4.0 mph 8.0 mph 48 % 0.00 in
16:44 90.9 °F 69.1 °F 29.85 in NNW 2.0 mph 8.0 mph 49 % 0.00 in
16:49 90.3 °F 69.1 °F 29.85 in NW 4.0 mph 6.0 mph 50 % 0.00 in
16:54 89.8 °F 69.8 °F 29.85 in WSW 1.0 mph 7.0 mph 52 % 0.00 in
16:59 89.6 °F 70.2 °F 29.85 in NW 2.0 mph 7.0 mph 53 % 0.00 in
17:04 89.4 °F 70.5 °F 29.85 in NW 2.0 mph 7.0 mph 54 % 0.00 in
17:09 89.4 °F 70.5 °F 29.85 in East 3.0 mph 6.0 mph 54 % 0.00 in
17:14 89.1 °F 69.6 °F 29.85 in NNE 3.0 mph 6.0 mph 53 % 0.00 in
17:19 88.7 °F 70.0 °F 29.85 in NNE 3.0 mph 8.0 mph 54 % 0.00 in
17:24 88.7 °F 71.1 °F 29.85 in NW 2.0 mph 8.0 mph 56 % 0.00 in
17:29 89.4 °F 71.1 °F 29.85 in WNW 3.0 mph 8.0 mph 55 % 0.00 in
17:34 90.0 °F 70.0 °F 29.85 in NW 2.0 mph 5.0 mph 52 % 0.00 in
17:39 90.3 °F 69.8 °F 29.85 in NNW 2.0 mph 6.0 mph 51 % 0.00 in
17:44 90.3 °F 69.8 °F 29.85 in NW 5.0 mph 9.0 mph 51 % 0.00 in
17:49 90.5 °F 68.7 °F 29.85 in NW 3.0 mph 9.0 mph 49 % 0.00 in
17:54 90.7 °F 69.4 °F 29.85 in NNW 4.0 mph 9.0 mph 50 % 0.00 in
17:59 90.7 °F 68.4 °F 29.85 in WNW 5.0 mph 8.0 mph 48 % 0.00 in
18:04 90.7 °F 68.9 °F 29.85 in NW 3.0 mph 9.0 mph 49 % 0.00 in
18:09 90.1 °F 68.9 °F 29.85 in North 2.0 mph 9.0 mph 50 % 0.00 in
18:14 89.4 °F 68.9 °F 29.85 in North 3.0 mph 9.0 mph 51 % 0.00 in
18:19 89.1 °F 69.6 °F 29.85 in NNW 2.0 mph 8.0 mph 53 % 0.00 in
18:24 88.9 °F 70.2 °F 29.85 in NNW 2.0 mph 8.0 mph 54 % 0.00 in
18:29 88.5 °F 69.8 °F 29.84 in NNW 1.0 mph 8.0 mph 54 % 0.00 in
18:34 89.1 °F 70.2 °F 29.84 in NW 2.0 mph 6.0 mph 54 % 0.00 in
18:39 89.2 °F 70.3 °F 29.84 in NNW 3.0 mph 6.0 mph 54 % 0.00 in
18:44 89.2 °F 70.3 °F 29.84 in WNW 4.0 mph 6.0 mph 54 % 0.00 in
18:49 88.3 °F 70.2 °F 29.85 in NNE 1.0 mph 6.0 mph 55 % 0.00 in
18:54 87.8 °F 70.2 °F 29.84 in Calm   7.0 mph 56 % 0.00 in
18:59 87.4 °F 70.3 °F 29.84 in Calm   7.0 mph 57 % 0.00 in
19:04 87.4 °F 70.9 °F 29.84 in NNW 3.0 mph 7.0 mph 58 % 0.00 in
19:09 87.8 °F 70.7 °F 29.84 in NNE 1.0 mph 6.0 mph 57 % 0.00 in
19:14 88.2 °F 71.6 °F 29.85 in North 1.0 mph 6.0 mph 58 % 0.00 in
19:19 88.3 °F 71.6 °F 29.85 in NNW 1.0 mph 3.0 mph 58 % 0.00 in
19:24 88.2 °F 71.6 °F 29.85 in East 2.0 mph 3.0 mph 58 % 0.00 in
19:29 87.8 °F 71.2 °F 29.85 in NNE 1.0 mph 5.0 mph 58 % 0.00 in
19:34 87.4 °F 71.4 °F 29.85 in NW 1.0 mph 6.0 mph 59 % 0.00 in
19:39 87.1 °F 71.1 °F 29.85 in North 2.0 mph 6.0 mph 59 % 0.00 in
19:44 86.7 °F 71.2 °F 29.85 in North 1.0 mph 6.0 mph 60 % 0.00 in
19:49 86.5 °F 71.1 °F 29.85 in Calm   5.0 mph 60 % 0.00 in
19:54 86.4 °F 70.9 °F 29.85 in NNW 4.0 mph 5.0 mph 60 % 0.00 in
19:59 86.2 °F 71.1 °F 29.85 in NNE 1.0 mph 5.0 mph 61 % 0.00 in
20:04 85.8 °F 70.9 °F 29.85 in NNE 1.0 mph 5.0 mph 61 % 0.00 in
20:09 85.5 °F 70.9 °F 29.86 in North 1.0 mph 5.0 mph 62 % 0.00 in
20:14 85.3 °F 70.7 °F 29.85 in Calm   4.0 mph 62 % 0.00 in
20:19 84.9 °F 70.9 °F 29.85 in Calm   4.0 mph 63 % 0.00 in
20:24 84.6 °F 70.5 °F 29.86 in Calm   4.0 mph 63 % 0.00 in
20:29 84.4 °F 70.9 °F 29.86 in NE 1.0 mph 2.0 mph 64 % 0.00 in
20:34 84.0 °F 70.5 °F 29.86 in Calm   2.0 mph 64 % 0.00 in
20:35 84.0 °F 71.1 °F 29.86 in Calm   1.0 mph 65 % 0.00 in
20:40 83.7 °F 70.7 °F 29.86 in Calm   1.0 mph 65 % 0.00 in
20:45 83.5 °F 70.9 °F 29.86 in Calm   1.0 mph 66 % 0.00 in
20:50 83.1 °F 70.5 °F 29.86 in Calm   1.0 mph 66 % 0.00 in
20:55 82.9 °F 70.9 °F 29.86 in North 1.0 mph 1.0 mph 67 % 0.00 in
21:00 82.8 °F 70.7 °F 29.86 in Calm   1.0 mph 67 % 0.00 in
21:05 82.6 °F 70.9 °F 29.87 in Calm   1.0 mph 68 % 0.00 in
21:10 82.2 °F 70.5 °F 29.87 in Calm   1.0 mph 68 % 0.00 in
21:15 82.0 °F 70.9 °F 29.87 in Calm   1.0 mph 69 % 0.00 in
21:20 81.9 °F 70.7 °F 29.87 in North 2.0 mph 2.0 mph 69 % 0.00 in
21:25 81.7 °F 70.9 °F 29.87 in Calm   2.0 mph 70 % 0.00 in
21:30 81.7 °F 70.5 °F 29.87 in Calm   2.0 mph 69 % 0.00 in
21:35 81.7 °F 70.5 °F 29.87 in North 2.0 mph 2.0 mph 69 % 0.00 in
21:40 81.5 °F 70.3 °F 29.87 in Calm   4.0 mph 69 % 0.00 in
21:45 81.3 °F 70.2 °F 29.87 in Calm   4.0 mph 69 % 0.00 in
21:55 81.1 °F 70.0 °F 29.88 in North 1.0 mph 4.0 mph 69 % 0.00 in
22:00 81.0 °F 69.8 °F 29.88 in NE 1.0 mph 4.0 mph 69 % 0.00 in
22:05 81.0 °F 70.2 °F 29.88 in NE 1.0 mph 3.0 mph 70 % 0.00 in
22:10 80.8 °F 70.2 °F 29.88 in Calm   3.0 mph 70 % 0.00 in
22:15 80.6 °F 70.3 °F 29.88 in Calm   2.0 mph 71 % 0.00 in
22:20 80.4 °F 70.2 °F 29.88 in Calm   2.0 mph 71 % 0.00 in
22:25 80.2 °F 70.3 °F 29.88 in Calm   2.0 mph 72 % 0.00 in
22:30 80.1 °F 70.2 °F 29.89 in NNW 1.0 mph 1.0 mph 72 % 0.00 in
22:35 79.9 °F 70.5 °F 29.89 in Calm   2.0 mph 73 % 0.00 in
22:40 79.7 °F 70.3 °F 29.89 in Calm   2.0 mph 73 % 0.00 in
22:43 79.5 °F 70.2 °F 29.89 in Calm   2.0 mph 73 % 0.00 in
22:48 79.5 °F 70.2 °F 29.89 in Calm   2.0 mph 73 % 0.00 in
22:53 79.3 °F 70.3 °F 29.89 in Calm   2.0 mph 74 % 0.00 in
22:58 79.2 °F 70.2 °F 29.89 in Calm   2.0 mph 74 % 0.00 in
23:03 79.2 °F 70.2 °F 29.89 in Calm   2.0 mph 74 % 0.00 in
23:08 79.2 °F 69.8 °F 29.89 in North 1.0 mph 3.0 mph 73 % 0.00 in
23:13 79.0 °F 69.6 °F 29.89 in Calm   6.0 mph 73 % 0.00 in
23:19 79.0 °F 69.3 °F 29.89 in Calm   6.0 mph 72 % 0.00 in
23:24 79.0 °F 69.3 °F 29.90 in ENE 1.0 mph 6.0 mph 72 % 0.00 in
23:29 79.0 °F 69.3 °F 29.89 in ENE 1.0 mph 4.0 mph 72 % 0.00 in
23:34 78.8 °F 69.1 °F 29.89 in ENE 1.0 mph 4.0 mph 72 % 0.00 in
23:39 78.6 °F 68.9 °F 29.89 in Calm   4.0 mph 72 % 0.00 in
23:44 78.6 °F 68.9 °F 29.90 in ENE 1.0 mph 4.0 mph 72 % 0.00 in
23:49 78.4 °F 68.7 °F 29.90 in Calm   3.0 mph 72 % 0.00 in
23:54 78.3 °F 68.5 °F 29.90 in NE 3.0 mph 3.0 mph 72 % 0.00 in
23:59 78.3 °F 68.5 °F 29.90 in North 1.0 mph 6.0 mph 72 % 0.00 in
Spring, Texas: Villages of Bridgestone
Compliments of Weather Underground - 2.75 mb

Script developed by  Jim McMurry - jmcmurry@mwt.net Adapted for the template by  Wim van der Kuil - Leuven-Template.eu

You find our weather info also at:

UK Metoffice

WeatherCloud

Weather Underground

Mid-South Weather Network

AWEKAS

Citizen Weather Observer Program (CWOP)

HAMweather, WeatherForYou, PWS Weather

Equipment we use:

Weather-station
Davis Vantage Vue

Weather-program
Meteohub

Weather-server
Debian 7.9 x86 (Guest)

Provider
DreamHost

Davis Vantage Vue

Meteohub

Debian 7.9 x86 (Guest)

DreamHost